Data for 05/26/2018

Time Sea-Level Adjusted Pressure Absolute Pressure Temperature Relative Humidity Dew Point   
(mb) (inHg) (mb) (inHg) (C) (F) (%) (C) (F)
00:05 1014 29.94 843 24.89 13.2 55.8 63 6.4 43.5
00:10 1014 29.94 843 24.89 13 55.3 62 6 42.8
00:15 1014 29.94 843 24.89 13.3 56 61 6 42.8
00:20 1014 29.94 843 24.89 13.2 55.8 61 5.9 42.6
00:25 1014 29.94 843 24.89 13.2 55.7 61 5.8 42.5
00:30 1014 29.94 843 24.89 13.1 55.6 61 5.9 42.7
00:35 1013 29.91 843 24.89 13.1 55.5 62 5.9 42.7
00:40 1013 29.91 842 24.86 13.4 56 59 5.5 41.9
00:45 1013 29.91 842 24.86 13.9 57 58 6 42.7
00:50 1013 29.91 842 24.86 13.7 56.7 59 5.9 42.6
00:55 1013 29.91 842 24.86 13.8 56.9 57 5.5 41.9
01:00 1013 29.91 842 24.86 14.1 57.4 54 5 41
01:05 1013 29.91 842 24.86 14.3 57.8 54 5.1 41.2
01:10 1013 29.91 843 24.89 14.3 57.8 53 5 41
01:15 1013 29.91 843 24.89 14.2 57.5 55 5.2 41.4
01:20 1013 29.91 843 24.89 14 57.2 55 5.1 41.2
01:25 1014 29.94 843 24.89 13.8 56.9 57 5.4 41.8
01:30 1014 29.94 843 24.89 13.6 56.5 57 5.4 41.8
01:35 1014 29.94 843 24.89 13.6 56.4 57 5.3 41.5
01:40 1013 29.91 843 24.89 13.3 55.9 59 5.5 41.9
01:45 1014 29.94 843 24.89 13.1 55.7 57 5 40.9
01:50 1014 29.94 843 24.89 13.2 55.8 58 5.2 41.3
01:55 1014 29.94 843 24.89 13.1 55.6 60 5.5 41.9
02:00 1013 29.91 843 24.89 12.7 54.8 61 5.4 41.8
02:05 1013 29.91 843 24.89 12.5 54.5 62 5.4 41.7
02:10 1013 29.91 843 24.89 12.3 54.2 63 5.5 41.9
02:15 1014 29.94 843 24.89 12.3 54.1 61 5.1 41.1
02:20 1014 29.94 843 24.89 12.4 54.2 62 5.2 41.4
02:25 1014 29.94 843 24.89 12.1 53.7 63 5.2 41.4
02:30 1014 29.94 843 24.89 12 53.5 63 5.3 41.5
02:35 1014 29.94 843 24.89 11.7 53 65 5.5 41.9
02:40 1014 29.94 843 24.89 11.2 52.2 67 5.4 41.7
02:45 1014 29.94 843 24.89 10.9 51.7 69 5.6 42.1
02:50 1014 29.94 843 24.89 10.7 51.2 69 5.2 41.4
02:55 1014 29.94 843 24.89 10.7 51.3 68 5.2 41.3
03:00 1014 29.94 843 24.89 10.9 51.7 68 5.3 41.5
03:05 1014 29.94 843 24.89 10.9 51.5 66 4.8 40.7
03:10 1014 29.94 843 24.89 10.9 51.6 68 5.3 41.5
03:15 1014 29.94 843 24.89 10.6 51 69 5.2 41.4
03:20 1014 29.94 843 24.89 10.6 51 69 5.1 41.2
03:25 1014 29.94 843 24.89 10.4 50.8 69 5 41.1
03:30 1014 29.94 843 24.89 10.8 51.4 68 5.1 41.1
03:35 1014 29.94 843 24.89 11 51.7 64 4.6 40.2
03:40 1014 29.94 843 24.89 11.3 52.4 64 4.9 40.8
03:45 1014 29.94 843 24.89 11.2 52.1 67 5.3 41.5
03:50 1014 29.94 843 24.89 10.7 51.2 68 5.1 41.2
03:55 1014 29.94 843 24.89 10.3 50.6 69 5 41
04:00 1014 29.94 843 24.89 10.5 50.8 69 5 41
04:05 1014 29.94 843 24.89 10.3 50.5 71 5.3 41.5
04:10 1014 29.94 843 24.89 10.4 50.6 68 4.8 40.7
04:15 1014 29.94 843 24.89 11 51.7 66 4.9 40.8
04:20 1014 29.94 843 24.89 10.9 51.6 68 5.2 41.4
04:25 1014 29.94 843 24.89 10.6 51.1 67 4.7 40.5
04:30 1014 29.94 843 24.89 11.4 52.4 65 5 40.9
04:35 1014 29.94 843 24.89 11.4 52.5 65 5.2 41.3
04:40 1014 29.94 843 24.89 11.2 52.2 66 5.1 41.2
04:45 1014 29.94 843 24.89 11.1 51.9 66 5.1 41.1
04:50 1014 29.94 843 24.89 11.2 52.1 65 5 40.9
04:55 1014 29.94 843 24.89 11.3 52.4 65 5.1 41.1
05:00 1014 29.94 843 24.89 11.1 52 66 5.1 41.2
05:05 1014 29.94 843 24.89 10.9 51.7 66 4.9 40.8
05:10 1014 29.94 843 24.89 11 51.7 68 5.2 41.4
05:15 1014 29.94 843 24.89 10.5 50.9 69 5.1 41.1
05:20 1014 29.94 843 24.89 10 50 70 4.8 40.6
05:25 1014 29.94 843 24.89 10 50 69 4.6 40.3
05:30 1014 29.94 843 24.89 10.6 51.1 65 4.3 39.8
05:35 1014 29.94 843 24.89 11.1 52.1 63 4.3 39.8
05:40 1014 29.94 843 24.89 11.3 52.4 63 4.7 40.4
05:45 1014 29.94 843 24.89 11.2 52.2 64 4.6 40.3
05:50 1014 29.94 843 24.89 10.9 51.6 68 5.3 41.5
05:55 1014 29.94 843 24.89 10.2 50.3 71 5.3 41.5
06:00 1014 29.94 843 24.89 9.7 49.4 72 4.8 40.7
06:05 1014 29.94 844 24.92 9.7 49.4 70 4.6 40.2
06:10 1014 29.94 844 24.92 9.9 49.9 70 4.7 40.4
06:15 1014 29.94 843 24.89 10.3 50.5 69 4.8 40.6
06:20 1014 29.94 844 24.92 10.5 50.9 69 5.1 41.1
06:25 1015 29.97 844 24.92 10.4 50.8 69 5.1 41.2
06:30 1015 29.97 844 24.92 10.6 51.1 68 5.1 41.1
06:35 1015 29.97 844 24.92 10.6 51.1 68 5 41
06:40 1015 29.97 844 24.92 10.7 51.3 68 5.2 41.3
06:45 1015 29.97 844 24.92 10.7 51.3 68 5.2 41.3
06:50 1015 29.97 844 24.92 10.8 51.5 68 5.2 41.4
06:55 1015 29.97 844 24.92 11 51.8 67 5.2 41.4
07:00 1015 29.97 844 24.92 11.3 52.4 67 5.4 41.7
07:05 1015 29.97 844 24.92 11.7 53.1 67 5.8 42.4
07:10 1015 29.97 844 24.92 11.8 53.3 68 6.1 43
07:15 1015 29.97 844 24.92 11.8 53.3 67 5.9 42.5
07:20 1015 29.97 844 24.92 12.1 53.8 66 5.9 42.6
07:25 1015 29.97 844 24.92 12.5 54.5 64 6 42.7
07:30 1015 29.97 844 24.92 12.9 55.3 63 6.1 43
07:35 1015 29.97 844 24.92 13 55.3 64 6.3 43.3
07:40 1015 29.97 844 24.92 12.7 54.9 66 6.5 43.7
07:45 1015 29.97 844 24.92 12.9 55.2 64 6.3 43.3
07:50 1015 29.97 844 24.92 13.3 55.9 63 6.5 43.7
07:55 1015 29.97 844 24.92 13.7 56.6 62 6.7 44
08:00 1015 29.97 844 24.92 14 57.3 60 6.4 43.6
08:05 1015 29.97 844 24.92 14.4 57.9 59 6.6 43.9
08:10 1015 29.97 844 24.92 14.8 58.6 58 6.7 44
08:15 1015 29.97 844 24.92 15.1 59.2 57 6.8 44.3
08:20 1015 29.97 844 24.92 14.8 58.6 59 6.8 44.3
08:25 1015 29.97 844 24.92 15.1 59.1 56 6.5 43.7
08:30 1015 29.97 844 24.92 15.1 59.1 57 6.6 43.9
08:35 1015 29.97 844 24.92 15.1 59.1 56 6.4 43.5
08:40 1015 29.97 844 24.92 15.8 60.4 54 6.7 44
08:45 1015 29.97 844 24.92 15.6 60.2 55 6.7 44
08:50 1015 29.97 844 24.92 16.5 61.7 52 6.7 44.1
08:55 1015 29.97 844 24.92 16.9 62.4 51 6.8 44.3
09:00 1015 29.97 844 24.92 17 62.5 52 7.1 44.7
09:05 1015 29.97 844 24.92 17 62.5 50 6.6 43.9
09:10 1015 29.97 844 24.92 17.3 63.2 50 6.9 44.4
09:15 1015 29.97 844 24.92 17.5 63.6 49 6.7 44.1
09:20 1015 29.97 844 24.92 17.7 63.9 50 7.3 45.1
09:25 1015 29.97 844 24.92 17.9 64.2 48 7 44.6
09:30 1015 29.97 844 24.92 18 64.5 47 6.7 44.1
09:35 1015 29.97 844 24.92 17.9 64.2 48 6.9 44.3
09:40 1015 29.97 844 24.92 17.5 63.6 50 7 44.6
09:45 1015 29.97 844 24.92 17.8 64 50 7.3 45.1
09:50 1015 29.97 844 24.92 17.6 63.6 52 7.7 45.8
09:55 1015 29.97 844 24.92 17.1 62.7 54 7.7 45.8
10:00 1015 29.97 844 24.92 17.7 63.9 51 7.7 45.9
10:05 1015 29.97 844 24.92 18 64.4 52 8.1 46.6
10:10 1015 29.97 844 24.92 18.3 65 50 7.8 46
10:15 1015 29.97 844 24.92 18.6 65.5 50 8.1 46.6
10:20 1015 29.97 844 24.92 18.3 65 51 8.2 46.7
10:25 1015 29.97 844 24.92 18.2 64.7 50 7.8 46
10:30 1015 29.97 844 24.92 18.7 65.6 51 8.3 47
10:35 1015 29.97 844 24.92 18.9 66 49 8.2 46.8
10:40 1015 29.97 844 24.92 19 66.3 50 8.6 47.5
10:45 1015 29.97 844 24.92 18.9 65.9 50 8.2 46.8
10:50 1015 29.97 844 24.92 19.3 66.8 50 8.8 47.8
10:55 1015 29.97 844 24.92 19.2 66.6 49 8.3 46.9
11:00 1015 29.97 844 24.92 19.6 67.3 49 8.7 47.7
11:05 1015 29.97 844 24.92 19.8 67.6 46 7.9 46.3
11:10 1015 29.97 844 24.92 19.9 67.8 46 8.2 46.7
11:15 1015 29.97 844 24.92 20.4 68.7 45 8.3 47
11:20 1014 29.94 844 24.92 20.2 68.4 45 8 46.4
11:25 1015 29.97 844 24.92 20.2 68.4 44 7.7 45.8
11:30 1015 29.97 844 24.92 20.3 68.6 43 7.5 45.6
11:35 1015 29.97 844 24.92 20.5 68.9 41 7.1 44.8
11:40 1014 29.94 844 24.92 20.7 69.3 41 7 44.7
11:45 1015 29.97 844 24.92 20.4 68.7 41 6.8 44.2
11:50 1015 29.97 844 24.92 20.6 69.1 39 6.3 43.3
11:55 1015 29.97 844 24.92 20.7 69.2 39 6.3 43.4
12:00 1015 29.97 844 24.92 20.4 68.7 42 7.2 44.9
12:05 1015 29.97 844 24.92 20.5 69 43 7.5 45.6
12:10 1014 29.94 844 24.92 20.9 69.6 40 7.1 44.7
12:15 1014 29.94 844 24.92 21.3 70.3 39 7.1 44.8
12:20 1014 29.94 844 24.92 21.5 70.7 39 7.2 45
12:25 1014 29.94 844 24.92 20.9 69.7 41 7.5 45.5
12:30 1014 29.94 844 24.92 21.3 70.3 40 7.1 44.9
12:35 1014 29.94 844 24.92 22 71.5 37 6.9 44.5
12:40 1014 29.94 844 24.92 22.5 72.5 37 7.3 45.1
12:45 1014 29.94 844 24.92 22 71.6 38 7.3 45.1
12:50 1014 29.94 843 24.89 22.1 71.8 37 6.8 44.3
12:55 1014 29.94 843 24.89 22.4 72.2 37 7.1 44.8
13:00 1014 29.94 843 24.89 22.3 72.2 37 7 44.7
13:05 1014 29.94 843 24.89 21.9 71.4 38 7.1 44.8
13:10 1014 29.94 843 24.89 22.6 72.7 39 8.1 46.6
13:15 1014 29.94 844 24.92 22.9 73.2 36 7.3 45.2
13:20 1014 29.94 843 24.89 23 73.3 35 6.8 44.2
13:25 1014 29.94 843 24.89 22 71.6 40 7.8 46
13:30 1014 29.94 843 24.89 21.5 70.8 39 7.1 44.8
13:35 1014 29.94 843 24.89 22.5 72.5 36 7.1 44.7
13:40 1014 29.94 843 24.89 23.2 73.8 35 7.2 44.9
13:45 1014 29.94 843 24.89 23.2 73.7 36 7.5 45.4
13:50 1014 29.94 843 24.89 23.3 73.9 38 8.2 46.8
13:55 1014 29.94 843 24.89 23.3 74 38 8.4 47.1
14:00 1014 29.94 843 24.89 23.3 74 36 7.7 45.9
14:05 1014 29.94 843 24.89 22.7 72.8 39 8 46.5
14:10 1014 29.94 843 24.89 22.6 72.7 37 7.2 45
14:15 1014 29.94 843 24.89 22.3 72.2 38 7.5 45.5
14:20 1014 29.94 843 24.89 22.3 72.1 38 7.4 45.3
14:25 1014 29.94 843 24.89 23 73.4 36 7.2 44.9
14:30 1014 29.94 843 24.89 23.4 74 35 7.2 44.9
14:35 1014 29.94 843 24.89 23.5 74.2 34 6.8 44.2
14:40 1014 29.94 843 24.89 23.9 75.1 33 7.1 44.8
14:45 1014 29.94 843 24.89 23.9 75.1 33 6.9 44.4
14:50 1014 29.94 843 24.89 24.4 75.9 33 7.2 44.9
14:55 1014 29.94 843 24.89 24.7 76.4 33 7.3 45.2
15:00 1014 29.94 843 24.89 24.4 75.9 31 6.6 43.8
15:05 1014 29.94 843 24.89 24.3 75.8 32 6.8 44.3
15:10 1014 29.94 843 24.89 24.9 76.9 31 7 44.7
15:15 1014 29.94 843 24.89 25.3 77.5 30 6.9 44.4
15:20 1013 29.91 843 24.89 25.1 77.2 30 6.5 43.7
15:25 1013 29.91 843 24.89 25.2 77.4 29 6.4 43.5
15:30 1013 29.91 842 24.86 25.2 77.4 30 6.9 44.4
15:35 1013 29.91 842 24.86 25.3 77.6 30 6.7 44.1
15:40 1013 29.91 842 24.86 25.7 78.3 29 6.7 44
15:45 1013 29.91 842 24.86 24.6 76.3 30 6.3 43.3
15:50 1013 29.91 842 24.86 24.3 75.8 30 5.9 42.6
15:55 1013 29.91 842 24.86 24.3 75.7 31 6.1 43.1
16:00 1013 29.91 842 24.86 24.8 76.7 28 5.5 42
16:05 1013 29.91 842 24.86 25.4 77.7 29 6.1 43
16:10 1013 29.91 842 24.86 25.3 77.5 28 5.9 42.7
16:15 1013 29.91 842 24.86 24.7 76.4 31 6.6 43.9
16:20 1013 29.91 842 24.86 24.1 75.3 30 5.8 42.5
16:25 1013 29.91 842 24.86 24.3 75.7 31 6.3 43.3
16:30 1013 29.91 842 24.86 24.9 76.7 29 5.7 42.2
16:35 1013 29.91 842 24.86 25 77 30 6.6 43.8
16:40 1013 29.91 842 24.86 25.1 77.1 30 6.4 43.5
16:45 1013 29.91 842 24.86 25.6 78.1 30 6.9 44.5
16:50 1013 29.91 842 24.86 25.2 77.4 32 7.6 45.6
16:55 1013 29.91 842 24.86 25.4 77.8 30 6.9 44.5
17:00 1013 29.91 842 24.86 25.5 78 29 6.7 44
17:05 1013 29.91 842 24.86 25.8 78.5 30 7.3 45.2
17:10 1013 29.91 842 24.86 25.5 78 30 6.7 44.1
17:15 1013 29.91 842 24.86 25.8 78.4 30 7 44.6
17:20 1013 29.91 842 24.86 25.1 77.3 31 7 44.5
17:25 1013 29.91 842 24.86 24.8 76.6 30 6.3 43.4
17:30 1013 29.91 842 24.86 25 77 29 6.2 43.2
17:35 1013 29.91 842 24.86 25.2 77.3 29 6.1 42.9
17:40 1013 29.91 842 24.86 25.3 77.5 29 6 42.9
17:45 1013 29.91 842 24.86 25.3 77.6 28 5.7 42.2
17:50 1013 29.91 842 24.86 25.2 77.3 28 5.9 42.5
17:55 1013 29.91 842 24.86 25.2 77.3 29 6.2 43.2
18:00 1013 29.91 842 24.86 24.7 76.5 30 6.1 43
18:05 1013 29.91 842 24.86 24.3 75.8 30 5.8 42.4
18:10 1013 29.91 842 24.86 24.5 76.1 30 6.2 43.2
18:15 1013 29.91 842 24.86 24.2 75.5 32 6.6 44
18:20 1013 29.91 842 24.86 23.9 74.9 33 6.8 44.3
18:25 1013 29.91 842 24.86 23.6 74.5 33 6.7 44
18:30 1013 29.91 842 24.86 23.5 74.3 32 6.2 43.2
18:35 1013 29.91 842 24.86 23.2 73.8 33 6.3 43.3
18:40 1014 29.94 843 24.89 23.1 73.7 34 6.7 44
18:45 1014 29.94 843 24.89 22.7 72.9 36 7.1 44.8
18:50 1014 29.94 843 24.89 22 71.5 38 7.1 44.8
18:55 1014 29.94 843 24.89 21.4 70.4 40 7.3 45.1
19:00 1014 29.94 843 24.89 21.2 70.1 40 7.3 45.1
19:05 1014 29.94 843 24.89 21 69.9 41 7.6 45.6
19:10 1014 29.94 843 24.89 21.2 70.2 41 7.7 45.9
19:15 1014 29.94 843 24.89 21 69.9 42 7.9 46.2
19:20 1014 29.94 844 24.92 20.4 68.7 43 7.4 45.3
19:25 1015 29.97 844 24.92 20 67.9 43 7.3 45.1
19:30 1015 29.97 844 24.92 19.8 67.6 43 7 44.6
19:35 1015 29.97 844 24.92 19.7 67.4 43 6.9 44.4
19:40 1015 29.97 844 24.92 19.6 67.3 42 6.5 43.7
19:45 1015 29.97 844 24.92 19.7 67.4 42 6.4 43.5
19:50 1015 29.97 844 24.92 19.8 67.6 40 6 42.9
19:55 1015 29.97 844 24.92 19.8 67.6 39 5.7 42.2
20:00 1015 29.97 844 24.92 19.8 67.6 39 5.7 42.2
20:05 1015 29.97 844 24.92 19.8 67.6 40 6 42.8
20:10 1015 29.97 844 24.92 19.7 67.4 41 6.2 43.2
20:15 1015 29.97 844 24.92 19.3 66.8 43 6.5 43.7
20:20 1015 29.97 844 24.92 19 66.3 46 7.3 45.1
20:25 1015 29.97 844 24.92 18.7 65.7 48 7.7 45.9
20:30 1015 29.97 845 24.95 18.4 65.2 47 7.1 44.7
20:35 1016 30 845 24.95 18.5 65.2 48 7.5 45.5
20:40 1016 30 845 24.95 18.6 65.4 46 7 44.6
20:45 1016 30 845 24.95 18.6 65.5 48 7.4 45.3
20:50 1016 30 845 24.95 18.7 65.6 46 7 44.6
20:55 1016 30 845 24.95 18.8 65.8 46 7 44.6
21:00 1016 30 845 24.95 18.5 65.3 50 8.1 46.5
21:05 1016 30 845 24.95 17.8 64.1 51 7.5 45.5
21:10 1016 30 845 24.95 17.6 63.6 52 7.7 45.8
21:15 1016 30 845 24.95 17.5 63.5 51 7.3 45.1
21:20 1016 30 845 24.95 17.6 63.7 50 7.1 44.8
21:25 1016 30 845 24.95 17.6 63.7 49 7 44.6
21:30 1016 30 846 24.98 17.5 63.5 48 6.6 43.9
21:35 1016 30 846 24.98 17.2 63 49 6.4 43.5
21:40 1017 30.03 846 24.98 17.2 62.9 49 6.4 43.6
21:45 1017 30.03 846 24.98 17.2 63 49 6.5 43.6
21:50 1017 30.03 846 24.98 17.2 63 48 6.4 43.4
21:55 1017 30.03 846 24.98 17.2 62.9 49 6.4 43.5
22:00 1017 30.03 846 24.98 17.2 62.9 50 6.7 44.1
22:05 1017 30.03 846 24.98 17 62.6 51 6.9 44.4
22:10 1017 30.03 846 24.98 16.9 62.4 51 6.8 44.2
22:15 1017 30.03 846 24.98 16.9 62.5 51 7 44.5
22:20 1017 30.03 846 24.98 16.9 62.4 52 7 44.5
22:25 1017 30.03 846 24.98 16.8 62.3 53 7.2 45
22:30 1017 30.03 846 24.98 16.6 61.8 55 7.6 45.7
22:35 1017 30.03 847 25.01 16.3 61.3 57 7.9 46.2
22:40 1017 30.03 847 25.01 16 60.8 59 8 46.4
22:45 1018 30.06 847 25.01 15.8 60.4 60 8.2 46.8
22:50 1018 30.06 847 25.01 15.5 60 62 8.4 47.1
22:55 1018 30.06 847 25.01 15.4 59.7 62 8.1 46.6
23:00 1017 30.03 847 25.01 15.6 60 61 8.1 46.7
23:05 1017 30.03 847 25.01 15.6 60.2 61 8.2 46.8
23:10 1017 30.03 847 25.01 15.5 59.9 61 8.2 46.7
23:15 1018 30.06 847 25.01 15.6 60 61 8.2 46.7
23:20 1018 30.06 847 25.01 15.6 60 60 8 46.4
23:25 1018 30.06 847 25.01 15.8 60.4 60 8 46.4
23:30 1017 30.03 847 25.01 15.8 60.4 59 7.9 46.2
23:35 1017 30.03 846 24.98 15.8 60.5 60 8 46.4
23:40 1017 30.03 847 25.01 15.8 60.4 60 8.1 46.6
23:45 1017 30.03 847 25.01 15.5 59.9 62 8.3 46.9
23:50 1018 30.06 847 25.01 15.3 59.6 62 8.1 46.5
23:55 1018 30.06 847 25.01 15.2 59.4 63 8.2 46.7
24:00 1018 30.06 847 25.01 15 59 64 8.3 47